createdAt,value
2022-12-17T00:02:28.927Z,19.75
2022-12-17T00:05:14.303Z,19.75
2022-12-17T00:07:59.624Z,19.73
2022-12-17T00:10:44.793Z,19.74
2022-12-17T00:13:38.119Z,19.74
2022-12-17T00:16:24.444Z,19.74
2022-12-17T00:19:09.555Z,19.75
2022-12-17T00:21:55.003Z,19.75
2022-12-17T00:24:42.436Z,19.75
2022-12-17T00:27:27.682Z,19.75
2022-12-17T00:30:12.687Z,19.68
2022-12-17T00:32:57.939Z,19.74
2022-12-17T00:35:43.147Z,19.70
2022-12-17T00:38:37.071Z,19.76
2022-12-17T00:41:22.979Z,19.77
2022-12-17T00:44:08.133Z,19.76
2022-12-17T00:46:54.305Z,19.80
2022-12-17T00:49:41.302Z,19.73
2022-12-17T00:52:26.616Z,19.76
2022-12-17T00:55:11.859Z,19.81
2022-12-17T00:57:57.046Z,19.81
2022-12-17T01:00:42.356Z,19.71
2022-12-17T01:03:30.245Z,19.82
2022-12-17T01:06:19.342Z,19.82
2022-12-17T01:09:04.484Z,19.83
2022-12-17T01:11:49.774Z,19.82
2022-12-17T01:14:34.981Z,19.83
2022-12-17T01:17:20.899Z,19.74
2022-12-17T01:20:07.805Z,19.82
2022-12-17T01:22:53.231Z,19.83
2022-12-17T01:25:41.679Z,19.72
2022-12-17T01:28:27.123Z,19.83
2022-12-17T01:31:15.007Z,19.83
2022-12-17T01:34:00.691Z,19.82
2022-12-17T01:36:46.082Z,19.83
2022-12-17T01:39:31.247Z,19.84
2022-12-17T01:42:16.611Z,19.85
2022-12-17T01:45:11.130Z,19.84
2022-12-17T01:48:07.784Z,19.76
2022-12-17T01:51:02.030Z,19.84
2022-12-17T01:54:01.543Z,19.56
2022-12-17T01:56:47.211Z,19.84
2022-12-17T01:59:33.046Z,19.83
2022-12-17T02:02:18.512Z,19.84
2022-12-17T02:07:47.450Z,19.84
2022-12-17T02:10:53.291Z,19.84
2022-12-17T02:13:50.691Z,19.82
2022-12-17T02:16:39.082Z,19.84
2022-12-17T02:19:56.421Z,19.83
2022-12-17T02:22:58.968Z,19.83
2022-12-17T02:26:04.952Z,19.83
2022-12-17T02:28:52.998Z,19.84
2022-12-17T02:31:39.406Z,19.82
2022-12-17T02:34:28.455Z,19.84
2022-12-17T02:37:13.816Z,19.83
2022-12-17T02:39:59.508Z,19.84
2022-12-17T02:42:46.193Z,19.78
2022-12-17T02:45:32.687Z,19.81
2022-12-17T02:48:19.890Z,19.76
2022-12-17T02:51:05.777Z,19.68
2022-12-17T02:53:52.232Z,19.81
2022-12-17T02:56:37.515Z,19.81
2022-12-17T02:59:22.702Z,19.78
2022-12-17T03:02:08.509Z,19.81
2022-12-17T03:04:53.906Z,19.81
2022-12-17T03:07:39.161Z,19.81
2022-12-17T03:10:24.770Z,19.81
2022-12-17T03:13:10.164Z,19.80
2022-12-17T03:15:55.273Z,19.80
2022-12-17T03:18:40.647Z,19.81
2022-12-17T03:21:42.619Z,19.81
2022-12-17T03:24:27.500Z,19.82
2022-12-17T03:27:12.363Z,19.82
2022-12-17T03:29:57.589Z,19.81
2022-12-17T03:32:42.731Z,19.83
2022-12-17T03:35:27.882Z,19.82
2022-12-17T03:38:13.044Z,19.81
2022-12-17T03:40:58.233Z,19.79
2022-12-17T03:43:43.175Z,19.80
2022-12-17T03:46:28.609Z,19.79
2022-12-17T03:49:13.765Z,19.72
2022-12-17T03:51:58.871Z,19.77
2022-12-17T03:54:44.027Z,19.76
2022-12-17T03:57:28.979Z,19.74
2022-12-17T04:00:13.999Z,19.74
2022-12-17T04:02:59.296Z,19.74
2022-12-17T04:05:44.479Z,19.73
2022-12-17T04:08:29.570Z,19.72
2022-12-17T04:11:14.733Z,19.72
2022-12-17T04:13:59.939Z,19.68
2022-12-17T04:16:45.123Z,19.71
2022-12-17T04:19:30.426Z,19.71
2022-12-17T04:22:15.611Z,19.71
2022-12-17T04:25:01.030Z,19.69
2022-12-17T04:27:45.875Z,19.69
2022-12-17T04:30:31.193Z,19.69
2022-12-17T04:33:16.282Z,19.69
2022-12-17T04:36:01.516Z,19.69
2022-12-17T04:38:46.753Z,19.68
2022-12-17T04:41:31.891Z,19.68
2022-12-17T04:44:17.013Z,19.67
2022-12-17T04:47:02.177Z,19.64
2022-12-17T04:49:47.466Z,19.67
2022-12-17T04:52:32.533Z,19.61
2022-12-17T04:55:17.813Z,19.63
2022-12-17T04:58:03.233Z,19.66
2022-12-17T05:00:48.426Z,19.65
2022-12-17T05:03:34.850Z,19.62
2022-12-17T05:06:20.341Z,19.65
2022-12-17T05:09:05.535Z,19.64
2022-12-17T05:11:51.495Z,19.62
2022-12-17T05:14:36.704Z,19.64
2022-12-17T05:17:21.990Z,19.63
2022-12-17T05:20:07.177Z,19.62
2022-12-17T05:22:52.473Z,19.62
2022-12-17T05:25:37.655Z,19.61
2022-12-17T05:28:22.648Z,19.55
2022-12-17T05:31:12.738Z,19.60
2022-12-17T05:33:58.707Z,19.46
2022-12-17T05:36:44.439Z,19.58
2022-12-17T05:39:29.996Z,19.46
2022-12-17T05:44:43.998Z,19.58
2022-12-17T05:47:29.196Z,19.56
2022-12-17T05:50:14.500Z,19.56
2022-12-17T05:52:59.605Z,19.56
2022-12-17T05:56:04.661Z,19.38
2022-12-17T05:58:49.829Z,19.55
2022-12-17T06:01:35.172Z,19.54
2022-12-17T06:04:20.753Z,19.55
2022-12-17T06:07:06.042Z,19.53
2022-12-17T06:09:51.167Z,19.53
2022-12-17T06:12:46.798Z,19.43
2022-12-17T06:15:32.217Z,19.53
2022-12-17T06:18:17.650Z,19.51
2022-12-17T06:21:03.274Z,19.54
2022-12-17T06:23:48.849Z,19.49
2022-12-17T06:26:44.468Z,19.46
2022-12-17T06:29:29.587Z,19.55
2022-12-17T06:32:14.722Z,19.57
2022-12-17T06:35:00.361Z,19.58
2022-12-17T06:37:48.180Z,19.59
2022-12-17T06:40:33.309Z,19.60
2022-12-17T06:43:18.495Z,19.59
2022-12-17T06:46:03.524Z,19.61
2022-12-17T06:48:48.757Z,19.63
2022-12-17T06:51:34.002Z,19.35
2022-12-17T06:54:19.194Z,19.64
2022-12-17T06:57:04.472Z,19.66
2022-12-17T06:59:49.767Z,19.65
2022-12-17T07:02:34.915Z,19.64
2022-12-17T07:05:20.411Z,19.66
2022-12-17T07:08:14.592Z,19.58
2022-12-17T07:10:59.839Z,19.69
2022-12-17T07:13:44.776Z,19.70
2022-12-17T07:16:30.478Z,19.70
2022-12-17T07:19:15.779Z,19.72
2022-12-17T07:22:00.921Z,19.71
2022-12-17T07:24:46.000Z,19.59
2022-12-17T07:27:31.091Z,19.73
2022-12-17T07:30:16.490Z,19.74
2022-12-17T07:33:01.762Z,19.65
2022-12-17T07:35:46.936Z,19.75
2022-12-17T07:38:32.260Z,19.75
2022-12-17T07:41:18.171Z,19.76
2022-12-17T07:44:03.417Z,19.78
2022-12-17T07:46:48.591Z,19.77
2022-12-17T07:49:33.626Z,19.78
2022-12-17T07:52:18.944Z,19.78
2022-12-17T07:55:04.007Z,19.78
2022-12-17T07:57:49.138Z,19.75
2022-12-17T08:00:34.330Z,19.77
2022-12-17T08:03:20.264Z,19.70
2022-12-17T08:06:25.347Z,19.76
2022-12-17T08:09:10.596Z,19.74
2022-12-17T08:11:55.720Z,19.74
2022-12-17T08:14:40.911Z,19.73
2022-12-17T08:17:26.636Z,19.71
2022-12-17T08:20:11.910Z,19.71
2022-12-17T08:22:57.559Z,19.70
2022-12-17T08:25:42.838Z,19.68
2022-12-17T08:28:49.521Z,19.69
2022-12-17T08:31:33.943Z,19.69
2022-12-17T08:34:19.199Z,19.69
2022-12-17T08:37:04.712Z,19.70
2022-12-17T08:39:49.927Z,19.72
2022-12-17T08:42:35.266Z,19.72
2022-12-17T08:45:20.596Z,19.76
2022-12-17T08:48:05.601Z,19.78
2022-12-17T08:50:50.798Z,19.79
2022-12-17T08:53:36.287Z,19.79
2022-12-17T08:56:22.008Z,19.83
2022-12-17T08:59:07.335Z,19.84
2022-12-17T09:01:52.757Z,19.86
2022-12-17T09:04:37.802Z,19.87
2022-12-17T09:07:23.092Z,19.88
2022-12-17T09:10:08.422Z,19.90
2022-12-17T09:12:53.675Z,19.91
2022-12-17T09:15:38.612Z,19.91
2022-12-17T09:18:23.678Z,19.91
2022-12-17T09:21:13.430Z,19.93
2022-12-17T09:23:58.998Z,19.94
2022-12-17T09:26:44.495Z,19.95
2022-12-17T09:29:29.844Z,19.95
2022-12-17T09:32:15.082Z,19.96
2022-12-17T09:35:00.365Z,19.97
2022-12-17T09:37:45.651Z,19.94
2022-12-17T09:40:41.744Z,19.88
2022-12-17T09:43:41.989Z,19.98
2022-12-17T09:46:44.972Z,19.98
2022-12-17T09:49:41.223Z,19.97
2022-12-17T09:52:42.834Z,19.99
2022-12-17T09:55:36.242Z,19.99
2022-12-17T09:58:22.622Z,19.93
2022-12-17T10:01:08.958Z,20.00
2022-12-17T10:03:54.702Z,19.99
2022-12-17T10:06:46.988Z,19.99
2022-12-17T10:09:35.393Z,19.93
2022-12-17T10:12:38.514Z,20.00
2022-12-17T10:15:25.828Z,19.99
2022-12-17T10:18:11.199Z,19.98
2022-12-17T10:21:15.430Z,20.00
2022-12-17T10:24:01.178Z,19.96
2022-12-17T10:26:51.789Z,20.01
2022-12-17T10:29:47.123Z,20.02
2022-12-17T10:32:32.879Z,20.01
2022-12-17T10:35:21.064Z,19.98
2022-12-17T10:38:07.475Z,19.99
2022-12-17T10:40:53.203Z,19.94
2022-12-17T10:43:45.982Z,20.02
2022-12-17T10:46:40.378Z,20.02
2022-12-17T10:49:42.868Z,20.00
2022-12-17T10:52:49.330Z,20.04
2022-12-17T10:55:46.299Z,20.04
2022-12-17T10:58:47.141Z,19.84
2022-12-17T11:02:01.502Z,20.04
2022-12-17T11:04:50.133Z,20.06
2022-12-17T11:07:40.213Z,20.08
2022-12-17T11:10:34.632Z,20.01
2022-12-17T11:13:58.989Z,20.11
2022-12-17T11:16:53.404Z,20.11
2022-12-17T11:20:04.328Z,20.10
2022-12-17T11:23:17.997Z,20.13
2022-12-17T11:26:19.611Z,20.15
2022-12-17T11:29:04.971Z,20.17
2022-12-17T11:31:58.197Z,20.17
2022-12-17T11:35:08.470Z,20.20
2022-12-17T11:38:40.376Z,20.20
2022-12-17T11:41:25.451Z,20.23
2022-12-17T11:44:13.693Z,20.24
2022-12-17T11:47:23.817Z,20.26
2022-12-17T11:50:40.401Z,20.27
2022-12-17T11:53:56.507Z,20.28
2022-12-17T11:56:51.690Z,20.23
2022-12-17T11:59:55.915Z,20.26
2022-12-17T12:02:45.116Z,20.33
2022-12-17T12:06:11.784Z,20.35
2022-12-17T12:09:35.928Z,20.35
2022-12-17T12:12:36.467Z,20.36
2022-12-17T12:15:28.383Z,20.38
2022-12-17T12:18:21.593Z,20.37
2022-12-17T12:21:28.314Z,20.38
2022-12-17T12:24:40.943Z,20.39
2022-12-17T12:27:57.735Z,20.41
2022-12-17T12:30:48.247Z,20.42
2022-12-17T12:33:59.345Z,20.44
2022-12-17T12:36:45.859Z,20.46
2022-12-17T12:39:36.152Z,20.47
2022-12-17T12:42:24.929Z,20.47
2022-12-17T12:45:33.736Z,20.42
2022-12-17T12:48:32.705Z,20.41
2022-12-17T12:51:35.828Z,20.37
2022-12-17T12:54:50.091Z,20.37
2022-12-17T12:57:52.199Z,20.33
2022-12-17T13:00:55.733Z,20.33
2022-12-17T13:03:50.265Z,20.29
2022-12-17T13:06:41.792Z,20.27
2022-12-17T13:09:23.502Z,20.25
2022-12-17T13:11:56.611Z,20.06
2022-12-17T13:14:29.261Z,20.21
2022-12-17T13:16:55.830Z,20.20
2022-12-17T13:19:31.485Z,20.19
2022-12-17T13:22:20.269Z,20.07
2022-12-17T13:24:57.279Z,20.12
2022-12-17T13:27:35.854Z,20.15
2022-12-17T13:30:17.733Z,20.13
2022-12-17T13:33:24.935Z,20.10
2022-12-17T13:35:54.281Z,20.08
2022-12-17T13:38:39.880Z,20.07
2022-12-17T13:41:13.898Z,20.05
2022-12-17T13:43:57.680Z,20.03
2022-12-17T13:46:24.267Z,20.02
2022-12-17T13:48:57.466Z,20.01
2022-12-17T13:51:27.097Z,20.01
2022-12-17T13:53:57.658Z,19.99
2022-12-17T13:56:27.690Z,19.92
2022-12-17T13:58:56.263Z,19.98
2022-12-17T14:01:23.435Z,19.97
2022-12-17T14:04:11.190Z,19.96
2022-12-17T14:06:38.739Z,19.95
2022-12-17T14:09:05.972Z,19.94
2022-12-17T14:11:52.187Z,19.80
2022-12-17T14:14:38.952Z,19.93
2022-12-17T14:17:06.171Z,19.90
2022-12-17T14:19:33.560Z,19.89
2022-12-17T14:22:01.458Z,19.84
2022-12-17T14:24:29.434Z,19.88
2022-12-17T14:27:00.033Z,19.87
2022-12-17T14:29:29.355Z,19.85
2022-12-17T14:32:01.979Z,19.83
2022-12-17T14:34:29.950Z,19.83
2022-12-17T14:37:00.694Z,19.80
2022-12-17T14:39:30.786Z,19.73
2022-12-17T14:42:25.180Z,19.80
2022-12-17T14:44:58.855Z,19.76
2022-12-17T14:47:27.129Z,19.79
2022-12-17T14:50:12.038Z,19.79
2022-12-17T14:52:47.452Z,19.74
2022-12-17T14:55:23.358Z,19.76
2022-12-17T14:57:51.244Z,19.75
2022-12-17T15:00:18.699Z,19.74
2022-12-17T15:05:01.715Z,19.66
2022-12-17T15:07:31.908Z,19.73
2022-12-17T15:10:10.580Z,19.70
2022-12-17T15:12:37.159Z,19.69
2022-12-17T15:15:03.954Z,19.69
2022-12-17T15:17:30.580Z,19.69
2022-12-17T15:19:57.075Z,19.68
2022-12-17T15:22:24.030Z,19.55
2022-12-17T15:24:50.626Z,19.63
2022-12-17T15:27:20.234Z,19.66
2022-12-17T15:29:46.784Z,19.66
2022-12-17T15:32:23.571Z,19.65
2022-12-17T15:34:50.627Z,19.65
2022-12-17T15:37:21.028Z,19.60
2022-12-17T15:39:51.319Z,19.65
2022-12-17T15:42:36.568Z,19.63
2022-12-17T15:45:03.371Z,19.63
2022-12-17T15:47:30.822Z,19.62
2022-12-17T15:49:57.384Z,19.61
2022-12-17T15:52:24.071Z,19.57
2022-12-17T15:54:50.655Z,19.60
2022-12-17T15:57:18.901Z,19.60
2022-12-17T15:59:45.752Z,19.59
2022-12-17T16:02:12.883Z,19.58
2022-12-17T16:04:40.844Z,19.44
2022-12-17T16:07:07.589Z,19.56
2022-12-17T16:09:35.005Z,19.55
2022-12-17T16:12:01.569Z,19.54
2022-12-17T16:14:29.153Z,19.53
2022-12-17T16:16:55.683Z,19.53
2022-12-17T16:19:22.315Z,19.41
2022-12-17T16:21:49.243Z,19.50
2022-12-17T16:24:15.933Z,19.50
2022-12-17T16:26:42.688Z,19.49
2022-12-17T16:29:09.497Z,19.50
2022-12-17T16:31:36.129Z,19.49
2022-12-17T16:34:08.036Z,19.49
2022-12-17T16:36:34.681Z,19.48
2022-12-17T16:39:01.231Z,19.51
2022-12-17T16:41:28.387Z,19.50
2022-12-17T16:43:55.017Z,19.36
2022-12-17T16:46:31.225Z,19.52
2022-12-17T16:49:06.048Z,19.49
2022-12-17T16:51:33.145Z,19.48
2022-12-17T16:53:59.751Z,19.46
2022-12-17T16:56:28.338Z,19.46
2022-12-17T16:58:55.602Z,19.46
2022-12-17T17:01:28.385Z,19.44
2022-12-17T17:03:56.354Z,19.41
2022-12-17T17:06:23.407Z,19.44
2022-12-17T17:08:50.394Z,19.44
2022-12-17T17:11:19.308Z,19.43
2022-12-17T17:13:45.876Z,19.42
2022-12-17T17:16:12.562Z,19.42
2022-12-17T17:18:39.841Z,19.28
2022-12-17T17:21:18.787Z,19.40
2022-12-17T17:23:51.127Z,19.25
2022-12-17T17:26:17.854Z,19.29
2022-12-17T17:28:47.219Z,19.39
2022-12-17T17:31:15.400Z,19.39
2022-12-17T17:33:44.784Z,19.34
2022-12-17T17:36:25.960Z,19.32
2022-12-17T17:38:55.882Z,19.36
2022-12-17T17:41:24.874Z,19.35
2022-12-17T17:43:56.373Z,19.36
2022-12-17T17:46:23.182Z,19.31
2022-12-17T17:48:56.666Z,19.28
2022-12-17T17:53:49.572Z,19.34
2022-12-17T17:56:30.729Z,19.23
2022-12-17T17:59:12.091Z,19.32
2022-12-17T18:01:42.291Z,19.27
2022-12-17T18:04:13.152Z,19.29
2022-12-17T18:06:57.544Z,19.32
2022-12-17T18:09:29.613Z,19.33
2022-12-17T18:11:56.167Z,19.32
2022-12-17T18:14:22.747Z,19.32
2022-12-17T18:16:49.291Z,19.27
2022-12-17T18:19:21.874Z,19.34
2022-12-17T18:21:48.809Z,19.34
2022-12-17T18:24:18.452Z,19.24
2022-12-17T18:26:46.897Z,19.34
2022-12-17T18:31:47.109Z,19.07
2022-12-17T18:34:19.506Z,19.38
2022-12-17T18:36:46.487Z,19.35
2022-12-17T18:39:21.589Z,19.38
2022-12-17T18:42:07.968Z,19.40
2022-12-17T18:44:37.947Z,19.40
2022-12-17T18:47:07.885Z,19.41
2022-12-17T18:49:34.991Z,19.33
2022-12-17T18:52:01.826Z,19.37
2022-12-17T18:54:30.362Z,19.39
2022-12-17T18:57:01.949Z,19.42
2022-12-17T18:59:30.550Z,19.43
2022-12-17T19:01:58.624Z,19.43
2022-12-17T19:04:26.403Z,19.43
2022-12-17T19:06:53.661Z,19.34
2022-12-17T19:09:29.017Z,19.37
2022-12-17T19:11:56.582Z,19.43
2022-12-17T19:14:24.093Z,19.43
2022-12-17T19:16:52.688Z,19.36
2022-12-17T19:19:19.995Z,19.43
2022-12-17T19:21:46.693Z,19.42
2022-12-17T19:24:16.123Z,19.44
2022-12-17T19:26:44.110Z,19.40
2022-12-17T19:29:12.329Z,19.42
2022-12-17T19:31:39.663Z,19.33
2022-12-17T19:34:10.980Z,19.41
2022-12-17T19:36:38.747Z,19.14
2022-12-17T19:39:08.717Z,19.43
2022-12-17T19:41:35.679Z,19.43
2022-12-17T19:44:05.583Z,19.43
2022-12-17T19:46:35.110Z,19.38
2022-12-17T19:49:02.490Z,19.43
2022-12-17T19:51:30.752Z,19.43
2022-12-17T19:54:00.704Z,19.41
2022-12-17T19:56:33.665Z,19.29
2022-12-17T19:59:03.270Z,19.43
2022-12-17T20:01:32.497Z,19.41
2022-12-17T20:03:59.957Z,19.42
2022-12-17T20:06:29.773Z,19.42
2022-12-17T20:08:57.931Z,19.29
2022-12-17T20:11:34.051Z,19.27
2022-12-17T20:14:26.603Z,19.42
2022-12-17T20:17:00.161Z,19.41
2022-12-17T20:19:34.781Z,19.36
2022-12-17T20:22:07.719Z,19.38
2022-12-17T20:24:37.521Z,19.37
2022-12-17T20:27:04.369Z,19.39
2022-12-17T20:29:31.145Z,19.39
2022-12-17T20:34:27.260Z,19.39
2022-12-17T20:36:54.760Z,19.32
2022-12-17T20:39:26.668Z,19.37
2022-12-17T20:41:54.033Z,19.37
2022-12-17T20:44:20.648Z,19.36
2022-12-17T20:46:47.812Z,19.35
2022-12-17T20:49:14.721Z,19.34
2022-12-17T20:51:42.058Z,19.34
2022-12-17T20:54:10.289Z,19.33
2022-12-17T20:56:38.657Z,19.27
2022-12-17T20:59:07.548Z,19.32
2022-12-17T21:01:36.818Z,19.31
2022-12-17T21:04:04.489Z,19.30
2022-12-17T21:06:36.977Z,19.27
2022-12-17T21:09:04.898Z,19.23
2022-12-17T21:11:34.680Z,19.25
2022-12-17T21:14:07.225Z,19.28
2022-12-17T21:16:34.767Z,19.27
2022-12-17T21:19:02.460Z,19.22
2022-12-17T21:21:32.787Z,19.18
2022-12-17T21:24:00.886Z,19.22
2022-12-17T21:26:32.720Z,19.22
2022-12-17T21:29:00.649Z,19.23
2022-12-17T21:31:38.267Z,19.19
2022-12-17T21:34:07.263Z,19.17
2022-12-17T21:36:37.215Z,19.22
2022-12-17T21:39:09.095Z,19.22
2022-12-17T21:42:01.905Z,19.22
2022-12-17T21:44:32.222Z,19.13
2022-12-17T21:46:58.890Z,19.21
2022-12-17T21:49:25.670Z,19.21
2022-12-17T21:51:52.632Z,19.22
2022-12-17T21:54:20.130Z,19.22
2022-12-17T21:56:50.045Z,19.22
2022-12-17T21:59:17.007Z,19.24
2022-12-17T22:01:43.953Z,19.23
2022-12-17T22:04:11.143Z,19.25
2022-12-17T22:06:41.190Z,19.25
2022-12-17T22:09:10.429Z,19.23
2022-12-17T22:11:44.976Z,19.24
2022-12-17T22:14:18.937Z,19.14
2022-12-17T22:16:49.268Z,19.27
2022-12-17T22:19:22.995Z,19.28
2022-12-17T22:21:57.673Z,19.27
2022-12-17T22:24:25.386Z,19.22
2022-12-17T22:26:59.970Z,19.30
2022-12-17T22:29:45.980Z,19.31
2022-12-17T22:32:31.276Z,19.31
2022-12-17T22:37:28.156Z,19.31
2022-12-17T22:41:12.593Z,19.26
2022-12-17T22:44:32.173Z,19.32
2022-12-17T22:44:41.009Z,19.31
2022-12-17T22:46:16.670Z,19.30
2022-12-17T22:48:43.302Z,19.33
2022-12-17T22:51:30.201Z,19.35
2022-12-17T22:54:00.924Z,19.36
2022-12-17T22:57:02.908Z,19.24
2022-12-17T22:59:18.656Z,19.37
2022-12-17T23:01:45.483Z,19.26
2022-12-17T23:04:14.727Z,19.38
2022-12-17T23:06:45.063Z,19.38
2022-12-17T23:09:13.577Z,19.40
2022-12-17T23:11:40.289Z,19.40
2022-12-17T23:14:11.577Z,19.41
2022-12-17T23:16:39.617Z,19.38
2022-12-17T23:19:07.117Z,19.42
2022-12-17T23:21:35.084Z,19.43
2022-12-17T23:24:01.879Z,19.40
2022-12-17T23:26:31.315Z,19.44
2022-12-17T23:29:02.202Z,19.35
2022-12-17T23:31:32.625Z,19.44
2022-12-17T23:33:59.733Z,19.45
2022-12-17T23:36:27.727Z,19.45
2022-12-17T23:38:56.425Z,19.47
2022-12-17T23:41:29.027Z,19.46
2022-12-17T23:43:57.072Z,19.47
2022-12-17T23:46:25.418Z,19.48
2022-12-17T23:48:52.505Z,19.44
2022-12-17T23:51:21.311Z,19.37
2022-12-17T23:53:47.960Z,19.48
2022-12-17T23:56:20.518Z,19.49
2022-12-17T23:58:47.970Z,19.51
